createdAt,value
2018-06-04T00:01:51.831Z,90.05
2018-06-04T00:04:26.268Z,90.22
2018-06-04T00:06:58.869Z,90.32
2018-06-04T00:09:31.962Z,90.35
2018-06-04T00:12:04.641Z,90.32
2018-06-04T00:14:37.013Z,90.27
2018-06-04T00:17:09.959Z,90.27
2018-06-04T00:19:43.294Z,90.21
2018-06-04T00:22:15.981Z,90.45
2018-06-04T00:24:49.548Z,90.76
2018-06-04T00:27:22.088Z,90.43
2018-06-04T00:29:54.738Z,90.72
2018-06-04T00:32:28.424Z,91.24
2018-06-04T00:35:00.993Z,91.31
2018-06-04T00:37:34.333Z,90.93
2018-06-04T00:40:07.116Z,90.68
2018-06-04T00:42:40.169Z,90.61
2018-06-04T00:45:14.336Z,90.75
2018-06-04T00:47:47.990Z,90.79
2018-06-04T00:50:20.704Z,90.79
2018-06-04T00:52:53.109Z,91.23
2018-06-04T00:55:25.856Z,91.92
2018-06-04T00:57:58.292Z,91.88
2018-06-04T01:00:30.805Z,91.61
2018-06-04T01:03:03.660Z,91.54
2018-06-04T01:05:36.173Z,91.17
2018-06-04T01:08:08.635Z,90.80
2018-06-04T01:10:42.275Z,91.16
2018-06-04T01:13:14.983Z,91.02
2018-06-04T01:15:47.724Z,91.01
2018-06-04T01:18:20.565Z,91.24
2018-06-04T01:20:53.080Z,90.87
2018-06-04T01:23:25.552Z,91.19
2018-06-04T01:25:58.797Z,91.30
2018-06-04T01:28:31.224Z,91.54
2018-06-04T01:31:03.891Z,91.51
2018-06-04T01:36:08.836Z,91.84
2018-06-04T01:38:41.572Z,91.63
2018-06-04T01:41:14.505Z,91.80
2018-06-04T01:43:47.633Z,91.96
2018-06-04T01:46:20.101Z,92.06
2018-06-04T01:48:52.830Z,91.95
2018-06-04T01:51:25.489Z,91.54
2018-06-04T01:53:58.033Z,91.54
2018-06-04T01:56:30.776Z,91.76
2018-06-04T01:59:03.201Z,91.79
2018-06-04T02:01:35.803Z,91.68
2018-06-04T02:04:08.553Z,91.73
2018-06-04T02:06:41.837Z,91.60
2018-06-04T02:09:14.536Z,91.43
2018-06-04T02:11:48.033Z,91.34
2018-06-04T02:14:20.520Z,91.44
2018-06-04T02:16:53.387Z,91.60
2018-06-04T02:19:26.321Z,91.54
2018-06-04T02:21:59.430Z,91.75
2018-06-04T02:24:31.820Z,91.35
2018-06-04T02:27:04.677Z,91.12
2018-06-04T02:29:37.239Z,91.39
2018-06-04T02:32:09.781Z,91.71
2018-06-04T02:34:43.286Z,92.07
2018-06-04T02:37:15.998Z,92.08
2018-06-04T02:39:48.784Z,92.04
2018-06-04T02:42:21.783Z,92.16
2018-06-04T02:44:54.233Z,91.91
2018-06-04T02:47:26.713Z,91.83
2018-06-04T02:49:59.508Z,91.87
2018-06-04T02:52:32.039Z,91.71
2018-06-04T02:55:04.456Z,91.41
2018-06-04T02:57:37.169Z,91.70
2018-06-04T03:00:09.897Z,92.06
2018-06-04T03:02:44.664Z,92.24
2018-06-04T03:05:17.865Z,91.89
2018-06-04T03:07:50.705Z,91.93
2018-06-04T03:10:23.338Z,91.73
2018-06-04T03:12:56.399Z,92.13
2018-06-04T03:15:28.840Z,92.24
2018-06-04T03:18:01.382Z,92.18
2018-06-04T03:20:34.238Z,91.81
2018-06-04T03:23:07.103Z,91.70
2018-06-04T03:25:39.690Z,91.65
2018-06-04T03:28:12.752Z,91.72
2018-06-04T03:30:45.502Z,91.63
2018-06-04T03:33:18.113Z,91.98
2018-06-04T03:35:51.105Z,92.01
2018-06-04T03:38:24.036Z,91.90
2018-06-04T03:40:56.621Z,91.68
2018-06-04T03:43:29.443Z,91.58
2018-06-04T03:46:02.049Z,91.66
2018-06-04T03:48:34.570Z,91.48
2018-06-04T03:51:07.459Z,91.63
2018-06-04T03:53:40.244Z,91.70
2018-06-04T03:56:12.705Z,91.78
2018-06-04T03:58:45.993Z,91.64
2018-06-04T04:01:18.813Z,91.71
2018-06-04T04:03:52.277Z,91.74
2018-06-04T04:06:25.066Z,91.76
2018-06-04T04:08:57.453Z,91.82
2018-06-04T04:11:30.351Z,91.72
2018-06-04T04:14:03.388Z,91.75
2018-06-04T04:16:38.349Z,91.62
2018-06-04T04:19:10.867Z,91.50
2018-06-04T04:21:44.743Z,91.52
2018-06-04T04:24:17.960Z,91.58
2018-06-04T04:26:51.746Z,91.38
2018-06-04T04:29:24.368Z,91.37
2018-06-04T04:31:57.073Z,91.31
2018-06-04T04:34:29.625Z,91.30
2018-06-04T04:37:03.109Z,91.34
2018-06-04T04:39:36.005Z,91.27
2018-06-04T04:42:08.579Z,91.36
2018-06-04T04:44:40.924Z,91.16
2018-06-04T04:47:14.033Z,91.12
2018-06-04T04:49:46.976Z,91.07
2018-06-04T04:52:19.729Z,91.15
2018-06-04T04:54:53.313Z,91.31
2018-06-04T04:57:25.897Z,91.29
2018-06-04T04:59:58.877Z,91.27
2018-06-04T05:02:31.631Z,91.14
2018-06-04T05:05:04.142Z,91.07
2018-06-04T05:07:39.006Z,90.95
2018-06-04T05:10:11.939Z,90.99
2018-06-04T05:12:44.624Z,90.82
2018-06-04T05:15:16.687Z,90.63
2018-06-04T05:17:50.870Z,90.72
2018-06-04T05:20:25.184Z,90.42
2018-06-04T05:23:01.429Z,90.40
2018-06-04T05:25:34.683Z,90.30
2018-06-04T05:28:08.740Z,90.19
2018-06-04T05:30:41.370Z,90.27
2018-06-04T05:35:48.797Z,89.78
2018-06-04T05:38:21.441Z,89.75
2018-06-04T05:40:54.598Z,89.58
2018-06-04T05:43:27.405Z,89.64
2018-06-04T05:46:10.701Z,88.87
2018-06-04T05:48:43.241Z,89.18
2018-06-04T05:51:16.041Z,89.20
2018-06-04T05:53:49.110Z,88.70
2018-06-04T05:56:21.604Z,88.58
2018-06-04T05:58:54.554Z,88.54
2018-06-04T06:01:27.018Z,88.26
2018-06-04T06:04:03.745Z,87.61
2018-06-04T06:06:36.892Z,87.25
2018-06-04T06:09:10.779Z,86.74
2018-06-04T06:11:43.560Z,86.00
2018-06-04T06:14:16.437Z,85.36
2018-06-04T06:16:48.843Z,83.87
2018-06-04T06:19:21.575Z,83.71
2018-06-04T06:21:55.258Z,82.77
2018-06-04T06:24:28.704Z,83.09
2018-06-04T06:27:01.149Z,81.72
2018-06-04T06:29:34.140Z,82.02
2018-06-04T06:32:06.764Z,81.35
2018-06-04T06:34:39.369Z,81.61
2018-06-04T06:37:12.280Z,79.80
2018-06-04T06:39:44.817Z,77.04
2018-06-04T06:42:17.174Z,76.54
2018-06-04T06:44:50.338Z,76.58
2018-06-04T06:47:22.969Z,75.53
2018-06-04T06:49:56.542Z,74.46
2018-06-04T06:52:29.326Z,75.55
2018-06-04T06:55:02.311Z,74.65
2018-06-04T06:57:34.700Z,72.72
2018-06-04T07:00:07.621Z,71.09
2018-06-04T07:02:40.054Z,69.57
2018-06-04T07:05:12.472Z,70.58
2018-06-04T07:07:44.800Z,71.21
2018-06-04T07:10:18.446Z,70.66
2018-06-04T07:12:51.594Z,69.86
2018-06-04T07:15:24.426Z,68.77
2018-06-04T07:17:58.073Z,68.25
2018-06-04T07:20:31.150Z,68.00
2018-06-04T07:23:03.749Z,64.78
2018-06-04T07:25:36.667Z,64.23
2018-06-04T07:28:09.528Z,64.96
2018-06-04T07:30:43.788Z,63.88
2018-06-04T07:33:18.211Z,64.21
2018-06-04T07:35:50.916Z,63.72
2018-06-04T07:38:23.967Z,63.68
2018-06-04T07:40:57.669Z,63.42
2018-06-04T07:43:30.376Z,60.61
2018-06-04T07:46:03.479Z,60.81
2018-06-04T07:48:36.253Z,56.58
2018-06-04T07:51:08.786Z,57.00
2018-06-04T07:53:41.196Z,54.06
2018-06-04T07:56:14.159Z,52.83
2018-06-04T07:58:46.564Z,48.94
2018-06-04T08:01:18.881Z,48.39
2018-06-04T08:03:51.758Z,48.13
2018-06-04T08:06:25.274Z,44.72
2018-06-04T08:08:58.099Z,44.15
2018-06-04T08:11:30.671Z,44.31
2018-06-04T08:14:03.980Z,44.51
2018-06-04T08:16:36.856Z,45.36
2018-06-04T08:19:10.554Z,44.34
2018-06-04T08:21:43.222Z,42.56
2018-06-04T08:24:16.300Z,42.25
2018-06-04T08:26:50.029Z,42.48
2018-06-04T08:29:22.782Z,42.48
2018-06-04T08:31:55.479Z,43.33
2018-06-04T08:34:28.194Z,42.67
2018-06-04T08:37:00.875Z,44.02
2018-06-04T08:39:33.590Z,41.52
2018-06-04T08:42:06.884Z,41.78
2018-06-04T08:44:40.845Z,42.70
2018-06-04T08:47:14.742Z,42.43
2018-06-04T08:49:47.689Z,41.93
2018-06-04T08:52:20.300Z,42.86
2018-06-04T08:54:52.633Z,39.70
2018-06-04T08:57:25.477Z,40.27
2018-06-04T08:59:58.010Z,41.40
2018-06-04T09:02:30.578Z,40.68
2018-06-04T09:05:03.453Z,40.53
2018-06-04T09:07:35.983Z,41.61
2018-06-04T09:10:09.079Z,41.85
2018-06-04T09:12:43.273Z,41.00
2018-06-04T09:15:19.194Z,39.82
2018-06-04T09:17:52.588Z,40.57
2018-06-04T09:20:25.640Z,40.43
2018-06-04T09:22:58.553Z,41.10
2018-06-04T09:25:31.273Z,42.50
2018-06-04T09:28:04.404Z,40.88
2018-06-04T09:30:37.006Z,40.36
2018-06-04T09:33:10.417Z,39.42
2018-06-04T09:35:44.539Z,39.75
2018-06-04T09:38:17.841Z,40.25
2018-06-04T09:40:50.568Z,40.29
2018-06-04T09:43:23.411Z,41.72
2018-06-04T09:45:55.854Z,41.22
2018-06-04T09:48:28.401Z,40.11
2018-06-04T09:51:01.183Z,40.32
2018-06-04T09:53:34.780Z,41.81
2018-06-04T09:56:12.832Z,42.43
2018-06-04T09:58:46.745Z,41.05
2018-06-04T10:01:21.041Z,41.75
2018-06-04T10:03:54.225Z,42.23
2018-06-04T10:06:26.618Z,41.21
2018-06-04T10:08:59.143Z,40.65
2018-06-04T10:11:32.215Z,41.65
2018-06-04T10:14:05.289Z,40.74
2018-06-04T10:16:37.956Z,41.02
2018-06-04T10:19:13.570Z,40.05
2018-06-04T10:21:47.620Z,40.09
2018-06-04T10:24:20.765Z,40.30
2018-06-04T10:26:55.122Z,37.84
2018-06-04T10:29:29.143Z,37.36
2018-06-04T10:32:02.815Z,37.86
2018-06-04T10:34:35.844Z,38.38
2018-06-04T10:37:12.413Z,38.73
2018-06-04T10:39:45.493Z,38.56
2018-06-04T10:42:20.702Z,37.77
2018-06-04T10:44:53.267Z,38.90
2018-06-04T10:47:25.656Z,37.63
2018-06-04T10:49:58.407Z,38.20
2018-06-04T10:52:31.279Z,37.76
2018-06-04T10:55:04.395Z,38.24
2018-06-04T10:57:37.403Z,38.66
2018-06-04T11:00:10.637Z,40.40
2018-06-04T11:02:47.869Z,39.04
2018-06-04T11:05:21.895Z,37.97
2018-06-04T11:07:54.431Z,36.22
2018-06-04T11:10:27.039Z,35.08
2018-06-04T11:13:00.831Z,35.68
2018-06-04T11:15:33.500Z,34.79
2018-06-04T11:18:06.002Z,36.37
2018-06-04T11:20:38.581Z,34.93
2018-06-04T11:23:11.282Z,35.17
2018-06-04T11:25:43.850Z,34.71
2018-06-04T11:28:17.014Z,35.89
2018-06-04T11:30:49.680Z,35.42
2018-06-04T11:33:22.074Z,37.14
2018-06-04T11:35:55.661Z,34.92
2018-06-04T11:38:32.807Z,35.07
2018-06-04T11:41:07.754Z,36.23
2018-06-04T11:43:41.295Z,37.40
2018-06-04T11:46:17.028Z,37.64
2018-06-04T11:48:50.621Z,34.73
2018-06-04T11:51:25.898Z,33.93
2018-06-04T11:53:59.791Z,35.50
2018-06-04T11:56:38.250Z,34.88
2018-06-04T11:59:12.405Z,36.09
2018-06-04T12:01:46.517Z,37.13
2018-06-04T12:04:20.201Z,35.46
2018-06-04T12:06:59.757Z,35.07
2018-06-04T12:09:35.480Z,34.51
2018-06-04T12:12:10.016Z,36.17
2018-06-04T12:14:45.648Z,35.97
2018-06-04T12:17:19.637Z,36.06
2018-06-04T12:19:53.494Z,36.94
2018-06-04T12:22:25.920Z,37.28
2018-06-04T12:24:58.936Z,37.16
2018-06-04T12:27:37.709Z,36.81
2018-06-04T12:30:13.796Z,37.15
2018-06-04T12:32:50.348Z,35.88
2018-06-04T12:35:24.753Z,35.44
2018-06-04T12:37:58.994Z,34.34
2018-06-04T12:40:34.037Z,34.40
2018-06-04T12:43:08.703Z,34.17
2018-06-04T12:45:46.132Z,33.66
2018-06-04T12:48:18.934Z,33.39
2018-06-04T12:50:51.804Z,34.44
2018-06-04T12:53:24.950Z,33.62
2018-06-04T12:55:58.769Z,32.77
2018-06-04T12:58:38.582Z,34.55
2018-06-04T13:01:12.983Z,35.67
2018-06-04T13:03:46.773Z,35.67
2018-06-04T13:06:20.431Z,34.30
2018-06-04T13:08:56.780Z,34.81
2018-06-04T13:11:31.676Z,34.16
2018-06-04T13:14:08.429Z,34.61
2018-06-04T13:16:46.676Z,35.54
2018-06-04T13:19:21.560Z,36.06
2018-06-04T13:21:55.948Z,35.47
2018-06-04T13:24:29.524Z,34.94
2018-06-04T13:27:04.646Z,34.27
2018-06-04T13:29:38.794Z,35.55
2018-06-04T13:32:13.893Z,33.50
2018-06-04T13:34:48.501Z,33.01
2018-06-04T13:37:21.766Z,33.65
2018-06-04T13:39:55.762Z,32.74
2018-06-04T13:42:31.214Z,32.95
2018-06-04T13:45:09.555Z,33.32
2018-06-04T13:47:45.193Z,34.03
2018-06-04T13:50:18.276Z,34.25
2018-06-04T13:52:51.119Z,35.77
2018-06-04T13:55:25.392Z,35.37
2018-06-04T13:58:01.093Z,34.50
2018-06-04T14:00:52.936Z,34.17
2018-06-04T14:03:30.205Z,33.76
2018-06-04T14:06:04.504Z,33.53
2018-06-04T14:08:44.677Z,32.05
2018-06-04T14:11:17.294Z,32.46
2018-06-04T14:13:49.793Z,32.35
2018-06-04T14:16:24.031Z,33.23
2018-06-04T14:18:57.703Z,33.48
2018-06-04T14:21:35.928Z,34.57
2018-06-04T14:24:09.279Z,34.98
2018-06-04T14:26:41.753Z,34.27
2018-06-04T14:29:15.407Z,35.65
2018-06-04T14:31:49.793Z,36.02
2018-06-04T14:34:24.003Z,34.35
2018-06-04T14:37:03.070Z,34.05
2018-06-04T14:39:38.762Z,34.52
2018-06-04T14:42:17.024Z,34.39
2018-06-04T14:44:51.406Z,34.70
2018-06-04T14:47:23.968Z,35.80
2018-06-04T14:50:05.223Z,34.95
2018-06-04T14:52:42.677Z,34.84
2018-06-04T14:55:15.335Z,34.95
2018-06-04T14:57:51.228Z,35.95
2018-06-04T15:00:26.897Z,35.03
2018-06-04T15:03:04.012Z,36.29
2018-06-04T15:05:39.359Z,34.79
2018-06-04T15:08:14.870Z,35.87
2018-06-04T15:10:47.582Z,35.81
2018-06-04T15:13:21.537Z,36.46
2018-06-04T15:15:55.043Z,37.75
2018-06-04T15:18:30.866Z,38.19
2018-06-04T15:21:04.609Z,39.11
2018-06-04T15:23:38.807Z,40.49
2018-06-04T15:26:13.594Z,39.55
2018-06-04T15:28:48.403Z,38.66
2018-06-04T15:31:32.529Z,38.41
2018-06-04T15:34:09.368Z,40.05
2018-06-04T15:36:42.816Z,40.67
2018-06-04T15:39:19.643Z,40.48
2018-06-04T15:41:53.651Z,42.03
2018-06-04T15:44:27.580Z,41.39
2018-06-04T15:47:11.516Z,42.15
2018-06-04T15:49:50.500Z,42.21
2018-06-04T15:52:24.109Z,43.12
2018-06-04T15:55:02.923Z,43.86
2018-06-04T15:57:37.057Z,44.91
2018-06-04T16:00:14.945Z,44.30
2018-06-04T16:02:47.548Z,43.61
2018-06-04T16:05:21.696Z,43.58
2018-06-04T16:07:57.448Z,43.01
2018-06-04T16:10:34.412Z,44.22
2018-06-04T16:13:08.038Z,43.91
2018-06-04T16:15:41.538Z,43.86
2018-06-04T16:18:19.480Z,43.90
2018-06-04T16:21:05.701Z,44.42
2018-06-04T16:23:40.656Z,45.26
2018-06-04T16:26:16.550Z,45.15
2018-06-04T16:28:50.627Z,45.69
2018-06-04T16:31:24.567Z,46.14
2018-06-04T16:34:01.077Z,46.83
2018-06-04T16:36:35.848Z,45.96
2018-06-04T16:39:12.273Z,45.00
2018-06-04T16:41:46.894Z,44.88
2018-06-04T16:44:21.952Z,44.73
2018-06-04T16:47:03.211Z,44.93
2018-06-04T16:49:37.924Z,45.21
2018-06-04T16:52:15.707Z,45.47
2018-06-04T16:54:54.397Z,45.82
2018-06-04T16:57:35.715Z,45.58
2018-06-04T17:00:09.789Z,45.23
2018-06-04T17:02:45.636Z,45.47
2018-06-04T17:05:19.039Z,46.17
2018-06-04T17:07:52.249Z,46.65
2018-06-04T17:10:27.989Z,46.34
2018-06-04T17:13:05.289Z,46.38
2018-06-04T17:15:38.216Z,46.61
2018-06-04T17:18:14.575Z,47.09
2018-06-04T17:20:49.498Z,47.58
2018-06-04T17:23:22.628Z,47.89
2018-06-04T17:25:59.502Z,48.49
2018-06-04T17:28:34.279Z,47.85
2018-06-04T17:31:11.429Z,48.79
2018-06-04T17:33:47.731Z,48.72
2018-06-04T17:36:24.744Z,49.72
2018-06-04T17:38:59.562Z,49.98
2018-06-04T17:41:35.178Z,49.93
2018-06-04T17:44:08.478Z,50.90
2018-06-04T17:46:42.223Z,50.69
2018-06-04T17:49:15.980Z,50.39
2018-06-04T17:51:49.198Z,50.71
2018-06-04T17:54:23.915Z,50.22
2018-06-04T17:56:57.158Z,50.17
2018-06-04T17:59:32.349Z,50.44
2018-06-04T18:02:06.943Z,50.41
2018-06-04T18:04:42.853Z,51.38
2018-06-04T18:07:23.681Z,51.13
2018-06-04T18:10:06.156Z,52.07
2018-06-04T18:12:40.774Z,52.48
2018-06-04T18:15:17.051Z,53.46
2018-06-04T18:17:50.652Z,53.29
2018-06-04T18:20:26.357Z,53.45
2018-06-04T18:23:01.638Z,53.29
2018-06-04T18:25:38.135Z,53.84
2018-06-04T18:28:16.497Z,54.80
2018-06-04T18:30:51.553Z,55.01
2018-06-04T18:33:27.124Z,55.62
2018-06-04T18:36:02.653Z,56.00
2018-06-04T18:38:36.489Z,56.03
2018-06-04T18:41:13.981Z,56.46
2018-06-04T18:43:50.805Z,57.02
2018-06-04T18:46:29.922Z,57.45
2018-06-04T18:49:04.580Z,57.88
2018-06-04T18:51:38.711Z,58.25
2018-06-04T18:54:16.008Z,58.72
2018-06-04T18:56:51.930Z,58.83
2018-06-04T18:59:29.603Z,59.13
2018-06-04T19:02:06.410Z,59.80
2018-06-04T19:04:39.538Z,59.74
2018-06-04T19:07:14.410Z,60.17
2018-06-04T19:09:57.911Z,60.54
2018-06-04T19:12:34.385Z,61.12
2018-06-04T19:15:20.360Z,61.20
2018-06-04T19:17:57.604Z,61.57
2018-06-04T19:20:35.245Z,61.80
2018-06-04T19:23:11.919Z,61.97
2018-06-04T19:25:48.297Z,62.64
2018-06-04T19:28:25.200Z,62.76
2018-06-04T19:31:02.021Z,63.20
2018-06-04T19:33:37.132Z,63.77
2018-06-04T19:36:12.297Z,64.27
2018-06-04T19:38:45.419Z,64.82
2018-06-04T19:41:18.012Z,65.07
2018-06-04T19:44:19.651Z,65.37
2018-06-04T19:46:54.671Z,65.86
2018-06-04T19:49:31.323Z,65.99
2018-06-04T19:52:07.232Z,66.69
2018-06-04T19:54:42.847Z,66.95
2018-06-04T19:57:17.787Z,67.56
2018-06-04T19:59:55.274Z,68.08
2018-06-04T20:02:32.189Z,68.62
2018-06-04T20:05:07.070Z,69.10
2018-06-04T20:07:43.042Z,69.38
2018-06-04T20:10:24.934Z,69.98
2018-06-04T20:13:00.401Z,70.60
2018-06-04T20:15:36.060Z,70.82
2018-06-04T20:18:13.728Z,71.02
2018-06-04T20:20:47.773Z,70.94
2018-06-04T20:23:23.440Z,70.69
2018-06-04T20:25:59.726Z,71.09
2018-06-04T20:28:33.126Z,71.54
2018-06-04T20:31:07.301Z,71.85
2018-06-04T20:33:41.381Z,72.20
2018-06-04T20:36:17.307Z,72.35
2018-06-04T20:38:53.917Z,72.57
2018-06-04T20:41:29.035Z,72.64
2018-06-04T20:44:09.069Z,72.83
2018-06-04T20:46:44.692Z,72.99
2018-06-04T20:49:23.199Z,73.09
2018-06-04T20:52:01.718Z,73.38
2018-06-04T20:54:45.300Z,73.60
2018-06-04T20:57:23.466Z,73.92
2018-06-04T21:00:00.423Z,74.37
2018-06-04T21:02:35.619Z,74.80
2018-06-04T21:05:08.397Z,75.31
2018-06-04T21:07:41.816Z,75.62
2018-06-04T21:10:17.956Z,75.88
2018-06-04T21:12:54.722Z,76.08
2018-06-04T21:15:30.743Z,76.53
2018-06-04T21:18:04.629Z,77.02
2018-06-04T21:20:38.029Z,77.18
2018-06-04T21:23:11.676Z,77.24
2018-06-04T21:25:46.355Z,77.56
2018-06-04T21:28:23.098Z,77.72
2018-06-04T21:30:56.497Z,78.23
2018-06-04T21:33:31.451Z,78.44
2018-06-04T21:36:05.563Z,78.64
2018-06-04T21:38:40.544Z,78.76
2018-06-04T21:41:15.353Z,79.22
2018-06-04T21:43:50.393Z,79.41
2018-06-04T21:46:26.623Z,79.49
2018-06-04T21:49:02.461Z,79.23
2018-06-04T21:51:39.648Z,79.07
2018-06-04T21:54:14.087Z,79.21
2018-06-04T21:56:47.437Z,79.26
2018-06-04T21:59:20.026Z,79.49
2018-06-04T22:01:54.815Z,79.59
2018-06-04T22:04:31.246Z,79.90
2018-06-04T22:07:04.566Z,80.30
2018-06-04T22:09:41.541Z,80.31
2018-06-04T22:12:14.604Z,80.15
2018-06-04T22:14:59.463Z,80.46
2018-06-04T22:17:36.527Z,80.69
2018-06-04T22:20:30.650Z,80.79
2018-06-04T22:23:03.812Z,81.22
2018-06-04T22:25:38.620Z,81.61
2018-06-04T22:28:33.428Z,81.55
2018-06-04T22:31:07.628Z,81.81
2018-06-04T22:33:44.565Z,81.85
2018-06-04T22:36:22.247Z,82.02
2018-06-04T22:38:55.176Z,81.83
2018-06-04T22:41:28.508Z,81.84
2018-06-04T22:44:03.077Z,81.88
2018-06-04T22:46:37.758Z,82.12
2018-06-04T22:49:10.988Z,82.75
2018-06-04T22:51:44.837Z,82.96
2018-06-04T22:54:18.263Z,83.35
2018-06-04T22:56:51.583Z,83.69
2018-06-04T22:59:25.304Z,84.23
2018-06-04T23:01:58.293Z,84.43
2018-06-04T23:04:31.294Z,84.52
2018-06-04T23:07:08.197Z,84.44
2018-06-04T23:09:41.151Z,84.68
2018-06-04T23:12:16.949Z,84.91
2018-06-04T23:14:52.189Z,84.94
2018-06-04T23:17:25.474Z,85.04
2018-06-04T23:20:00.875Z,85.25
2018-06-04T23:22:35.407Z,85.60
2018-06-04T23:25:07.934Z,85.70
2018-06-04T23:27:40.944Z,85.94
2018-06-04T23:30:15.132Z,86.17
2018-06-04T23:32:47.751Z,86.30
2018-06-04T23:35:20.494Z,86.44
2018-06-04T23:37:53.070Z,86.26
2018-06-04T23:40:25.487Z,86.77
2018-06-04T23:42:58.271Z,86.84
2018-06-04T23:45:30.981Z,86.93
2018-06-04T23:48:03.602Z,86.99
2018-06-04T23:50:36.668Z,86.77
2018-06-04T23:53:09.200Z,86.32
2018-06-04T23:55:42.844Z,85.85
2018-06-04T23:58:18.388Z,85.17
